createdAt,value
2023-01-15T00:01:52.775Z,95546.50
2023-01-15T00:04:19.473Z,95554.88
2023-01-15T00:06:46.144Z,95556.16
2023-01-15T00:09:16.118Z,95540.63
2023-01-15T00:11:42.916Z,95531.88
2023-01-15T00:14:09.689Z,95534.25
2023-01-15T00:16:36.481Z,95528.66
2023-01-15T00:19:04.675Z,95521.34
2023-01-15T00:21:31.664Z,95526.53
2023-01-15T00:24:17.073Z,95520.22
2023-01-15T00:27:02.393Z,95525.88
2023-01-15T00:29:29.060Z,95509.78
2023-01-15T00:31:59.985Z,95507.59
2023-01-15T00:34:27.470Z,95505.44
2023-01-15T00:36:54.231Z,95502.72
2023-01-15T00:39:21.007Z,95508.97
2023-01-15T00:41:48.227Z,95496.63
2023-01-15T00:44:14.898Z,95482.03
2023-01-15T00:46:42.440Z,95491.28
2023-01-15T00:49:09.250Z,95493.31
2023-01-15T00:51:36.186Z,95480.03
2023-01-15T00:54:03.355Z,95476.22
2023-01-15T00:56:30.261Z,95478.16
2023-01-15T00:58:56.992Z,95462.22
2023-01-15T01:01:23.843Z,95462.16
2023-01-15T01:03:52.906Z,95471.50
2023-01-15T01:06:20.886Z,95471.19
2023-01-15T01:08:48.525Z,95459.94
2023-01-15T01:11:17.887Z,95455.63
2023-01-15T01:13:46.204Z,95465.28
2023-01-15T01:16:37.827Z,95457.09
2023-01-15T01:19:26.099Z,95452.44
2023-01-15T01:21:53.001Z,95449.59
2023-01-15T01:24:21.882Z,95454.41
2023-01-15T01:26:49.428Z,95445.97
2023-01-15T01:29:18.617Z,95455.19
2023-01-15T01:31:45.919Z,95454.06
2023-01-15T01:34:13.647Z,95441.88
2023-01-15T01:36:42.444Z,95442.97
2023-01-15T01:39:13.738Z,95453.28
2023-01-15T01:41:40.646Z,95436.88
2023-01-15T01:44:28.825Z,95434.50
2023-01-15T01:46:55.439Z,95439.91
2023-01-15T01:49:22.851Z,95426.78
2023-01-15T01:51:53.070Z,95437.66
2023-01-15T01:54:23.584Z,95425.09
2023-01-15T01:56:50.552Z,95427.09
2023-01-15T01:59:20.155Z,95426.69
2023-01-15T02:01:49.457Z,95427.63
2023-01-15T02:04:18.583Z,95425.56
2023-01-15T02:06:45.192Z,95430.44
2023-01-15T02:09:12.221Z,95420.44
2023-01-15T02:11:39.022Z,95417.53
2023-01-15T02:14:19.349Z,95418.31
2023-01-15T02:17:10.281Z,95401.38
2023-01-15T02:19:39.798Z,95398.59
2023-01-15T02:22:15.304Z,95396.41
2023-01-15T02:24:51.288Z,95395.84
2023-01-15T02:27:21.444Z,95383.72
2023-01-15T02:29:56.815Z,95376.22
2023-01-15T02:32:35.463Z,95385.97
2023-01-15T02:35:16.881Z,95373.56
2023-01-15T02:37:49.946Z,95364.06
2023-01-15T02:40:20.723Z,95350.31
2023-01-15T02:42:49.632Z,95355.81
2023-01-15T02:45:24.210Z,95354.13
2023-01-15T02:47:56.742Z,95344.97
2023-01-15T02:50:30.108Z,95352.56
2023-01-15T02:53:01.565Z,95357.09
2023-01-15T02:55:36.224Z,95337.91
2023-01-15T02:58:07.903Z,95350.53
2023-01-15T03:00:39.185Z,95359.47
2023-01-15T03:03:35.284Z,95348.63
2023-01-15T03:06:10.918Z,95357.94
2023-01-15T03:08:37.887Z,95357.84
2023-01-15T03:11:10.281Z,95357.03
2023-01-15T03:13:39.662Z,95358.47
2023-01-15T03:16:35.675Z,95355.00
2023-01-15T03:19:08.041Z,95360.78
2023-01-15T03:21:53.590Z,95369.16
2023-01-15T03:24:39.227Z,95365.38
2023-01-15T03:27:07.070Z,95369.84
2023-01-15T03:29:42.412Z,95373.81
2023-01-15T03:32:09.125Z,95373.31
2023-01-15T03:34:43.577Z,95381.38
2023-01-15T03:37:10.324Z,95385.31
2023-01-15T03:39:37.094Z,95375.19
2023-01-15T03:42:06.465Z,95378.78
2023-01-15T03:45:11.364Z,95387.44
2023-01-15T03:47:56.253Z,95377.91
2023-01-15T03:50:32.311Z,95368.81
2023-01-15T03:53:07.779Z,95370.72
2023-01-15T03:55:34.370Z,95367.06
2023-01-15T03:58:11.911Z,95364.00
2023-01-15T04:00:44.246Z,95347.41
2023-01-15T04:03:14.313Z,95326.47
2023-01-15T04:05:42.419Z,95315.72
2023-01-15T04:08:10.314Z,95323.44
2023-01-15T04:10:36.900Z,95306.66
2023-01-15T04:13:04.044Z,95291.91
2023-01-15T04:15:30.781Z,95279.88
2023-01-15T04:17:57.368Z,95271.22
2023-01-15T04:20:23.967Z,95268.88
2023-01-15T04:22:50.603Z,95261.00
2023-01-15T04:25:17.318Z,95264.97
2023-01-15T04:27:43.898Z,95245.38
2023-01-15T04:30:11.325Z,95256.13
2023-01-15T04:32:37.896Z,95239.19
2023-01-15T04:35:04.762Z,95234.72
2023-01-15T04:37:31.323Z,95225.44
2023-01-15T04:39:57.923Z,95210.16
2023-01-15T04:42:42.899Z,95207.94
2023-01-15T04:45:10.187Z,95193.25
2023-01-15T04:47:36.774Z,95191.75
2023-01-15T04:50:03.408Z,95193.50
2023-01-15T04:52:30.026Z,95182.00
2023-01-15T04:54:56.592Z,95183.75
2023-01-15T04:57:23.646Z,95187.84
2023-01-15T04:59:50.271Z,95185.44
2023-01-15T05:02:17.009Z,95185.63
2023-01-15T05:04:43.825Z,95167.94
2023-01-15T05:07:10.496Z,95175.63
2023-01-15T05:09:37.328Z,95170.00
2023-01-15T05:12:04.148Z,95164.72
2023-01-15T05:14:30.762Z,95162.66
2023-01-15T05:16:57.411Z,95172.25
2023-01-15T05:19:24.088Z,95164.34
2023-01-15T05:21:51.580Z,95155.53
2023-01-15T05:24:19.516Z,95154.75
2023-01-15T05:26:46.229Z,95134.81
2023-01-15T05:29:13.827Z,95132.88
2023-01-15T05:31:42.750Z,95135.25
2023-01-15T05:34:09.972Z,95130.31
2023-01-15T05:36:37.722Z,95124.75
2023-01-15T05:39:04.663Z,95127.59
2023-01-15T05:41:49.086Z,95128.25
2023-01-15T05:44:28.870Z,95111.06
2023-01-15T05:47:00.514Z,95109.72
2023-01-15T05:49:28.432Z,95116.06
2023-01-15T05:51:55.787Z,95111.03
2023-01-15T05:54:25.482Z,95112.22
2023-01-15T05:56:53.077Z,95106.00
2023-01-15T05:59:21.970Z,95104.59
2023-01-15T06:01:48.873Z,95109.88
2023-01-15T06:04:15.812Z,95110.13
2023-01-15T06:06:42.988Z,95105.72
2023-01-15T06:09:09.821Z,95113.50
2023-01-15T06:11:36.430Z,95109.31
2023-01-15T06:14:03.265Z,95105.41
2023-01-15T06:16:29.932Z,95087.41
2023-01-15T06:19:01.011Z,95093.34
2023-01-15T06:21:27.671Z,95086.63
2023-01-15T06:23:54.574Z,95098.38
2023-01-15T06:26:21.268Z,95096.63
2023-01-15T06:28:48.026Z,95099.97
2023-01-15T06:31:20.244Z,95097.09
2023-01-15T06:33:46.899Z,95088.00
2023-01-15T06:36:16.298Z,95088.41
2023-01-15T06:38:43.650Z,95087.41
2023-01-15T06:41:33.188Z,95088.00
2023-01-15T06:44:18.233Z,95089.19
2023-01-15T06:47:05.812Z,95084.25
2023-01-15T06:49:34.064Z,95088.00
2023-01-15T06:52:01.466Z,95085.03
2023-01-15T06:54:28.315Z,95086.22
2023-01-15T06:56:54.951Z,95084.06
2023-01-15T06:59:21.856Z,95085.63
2023-01-15T07:01:48.517Z,95084.56
2023-01-15T07:04:15.926Z,95088.72
2023-01-15T07:06:42.892Z,95089.00
2023-01-15T07:09:09.569Z,95089.00
2023-01-15T07:11:36.281Z,95096.41
2023-01-15T07:14:08.784Z,95100.47
2023-01-15T07:16:36.419Z,95090.38
2023-01-15T07:19:04.651Z,95092.75
2023-01-15T07:21:31.358Z,95096.09
2023-01-15T07:24:01.992Z,95095.13
2023-01-15T07:26:28.766Z,95103.59
2023-01-15T07:28:55.400Z,95120.81
2023-01-15T07:31:22.100Z,95121.41
2023-01-15T07:33:48.832Z,95112.31
2023-01-15T07:36:15.468Z,95104.31
2023-01-15T07:38:42.221Z,95117.38
2023-01-15T07:41:27.592Z,95116.66
2023-01-15T07:44:14.444Z,95120.81
2023-01-15T07:46:59.794Z,95124.78
2023-01-15T07:49:44.644Z,95118.06
2023-01-15T07:52:16.020Z,95125.78
2023-01-15T07:54:43.223Z,95129.31
2023-01-15T07:57:10.583Z,95127.66
2023-01-15T07:59:37.233Z,95126.75
2023-01-15T08:02:04.230Z,95105.81
2023-01-15T08:04:30.863Z,95101.84
2023-01-15T08:07:00.532Z,95092.56
2023-01-15T08:09:27.612Z,95108.72
2023-01-15T08:12:13.066Z,95113.72
2023-01-15T08:14:58.458Z,95101.66
2023-01-15T08:17:25.109Z,95096.13
2023-01-15T08:19:51.727Z,95106.78
2023-01-15T08:22:18.299Z,95091.44
2023-01-15T08:24:44.895Z,95095.31
2023-01-15T08:27:13.866Z,95095.50
2023-01-15T08:29:40.636Z,95107.56
2023-01-15T08:32:07.297Z,95102.22
2023-01-15T08:34:33.904Z,95113.69
2023-01-15T08:37:00.548Z,95114.50
2023-01-15T08:39:28.011Z,95101.28
2023-01-15T08:41:56.255Z,95114.00
2023-01-15T08:44:23.771Z,95100.03
2023-01-15T08:46:51.874Z,95110.09
2023-01-15T08:49:19.740Z,95107.81
2023-01-15T08:51:49.992Z,95101.13
2023-01-15T08:54:16.651Z,95095.69
2023-01-15T08:56:43.247Z,95101.44
2023-01-15T08:59:09.887Z,95108.75
2023-01-15T09:01:36.825Z,95103.69
2023-01-15T09:04:06.349Z,95107.38
2023-01-15T09:06:33.695Z,95099.03
2023-01-15T09:09:00.625Z,95088.34
2023-01-15T09:11:28.746Z,95103.09
2023-01-15T09:13:55.432Z,95096.41
2023-01-15T09:16:22.229Z,95096.97
2023-01-15T09:18:48.923Z,95097.00
2023-01-15T09:21:15.576Z,95084.50
2023-01-15T09:23:42.160Z,95084.69
2023-01-15T09:26:26.392Z,95093.38
2023-01-15T09:28:53.026Z,95099.13
2023-01-15T09:31:19.680Z,95089.50
2023-01-15T09:33:46.301Z,95088.59
2023-01-15T09:36:23.331Z,95085.78
2023-01-15T09:38:50.304Z,95077.22
2023-01-15T09:41:36.089Z,95061.94
2023-01-15T09:44:39.976Z,95058.13
2023-01-15T09:47:18.495Z,95074.56
2023-01-15T09:50:41.938Z,95055.75
2023-01-15T09:53:21.402Z,95047.59
2023-01-15T09:55:53.295Z,95045.03
2023-01-15T09:58:27.459Z,95040.19
2023-01-15T10:00:54.306Z,95037.75
2023-01-15T10:03:32.889Z,95037.75
2023-01-15T10:06:45.200Z,95035.44
2023-01-15T10:09:23.442Z,95030.34
2023-01-15T10:12:16.367Z,95033.63
2023-01-15T10:15:02.747Z,95031.28
2023-01-15T10:17:53.705Z,95015.88
2023-01-15T10:20:23.333Z,95012.28
2023-01-15T10:23:13.650Z,95000.19
2023-01-15T10:25:50.681Z,94995.53
2023-01-15T10:28:24.117Z,94987.19
2023-01-15T10:30:55.985Z,94990.63
2023-01-15T10:33:40.333Z,94980.13
2023-01-15T10:36:25.083Z,94971.47
2023-01-15T10:39:09.159Z,94973.41
2023-01-15T10:41:59.967Z,94974.66
2023-01-15T10:44:45.293Z,94971.06
2023-01-15T10:47:16.102Z,94980.50
2023-01-15T10:49:43.460Z,94978.63
2023-01-15T10:52:32.228Z,94973.16
2023-01-15T10:55:10.908Z,94976.28
2023-01-15T10:58:11.070Z,94972.97
2023-01-15T11:00:39.165Z,94969.47
2023-01-15T11:03:15.371Z,94952.63
2023-01-15T11:05:42.511Z,94951.03
2023-01-15T11:09:02.247Z,94953.06
2023-01-15T11:11:48.541Z,94949.81
2023-01-15T11:14:33.809Z,94960.84
2023-01-15T11:17:07.775Z,94958.59
2023-01-15T11:19:37.425Z,94959.22
2023-01-15T11:22:14.761Z,94973.72
2023-01-15T11:24:56.860Z,94960.09
2023-01-15T11:27:30.595Z,94954.63
2023-01-15T11:30:02.387Z,94941.09
2023-01-15T11:32:35.170Z,94953.28
2023-01-15T11:35:04.547Z,94943.09
2023-01-15T11:37:31.995Z,94957.94
2023-01-15T11:40:05.894Z,94949.69
2023-01-15T11:42:51.467Z,94954.28
2023-01-15T11:45:39.433Z,94948.06
2023-01-15T11:48:35.559Z,94956.69
2023-01-15T11:51:10.987Z,94951.19
2023-01-15T11:53:53.979Z,94946.09
2023-01-15T11:56:29.299Z,94962.19
2023-01-15T11:58:59.010Z,94968.00
2023-01-15T12:01:33.239Z,94969.91
2023-01-15T12:04:02.695Z,94983.28
2023-01-15T12:06:31.589Z,94989.75
2023-01-15T12:09:23.075Z,94996.25
2023-01-15T12:12:13.100Z,95025.09
2023-01-15T12:14:45.407Z,95026.59
2023-01-15T12:17:20.938Z,95014.06
2023-01-15T12:20:10.712Z,95023.81
2023-01-15T12:22:49.155Z,95031.84
2023-01-15T12:25:30.994Z,95061.59
2023-01-15T12:28:01.733Z,95071.22
2023-01-15T12:30:46.478Z,95094.84
2023-01-15T12:33:36.047Z,95098.06
2023-01-15T12:36:10.642Z,95115.78
2023-01-15T12:38:50.972Z,95125.16
2023-01-15T12:41:50.416Z,95137.66
2023-01-15T12:44:41.209Z,95151.34
2023-01-15T12:47:14.727Z,95168.75
2023-01-15T12:49:48.482Z,95194.50
2023-01-15T12:52:25.268Z,95196.50
2023-01-15T12:55:14.304Z,95205.06
2023-01-15T12:57:45.949Z,95226.03
2023-01-15T13:00:17.246Z,95247.81
2023-01-15T13:02:55.882Z,95267.22
2023-01-15T13:05:29.786Z,95278.13
2023-01-15T13:08:04.223Z,95293.44
2023-01-15T13:10:34.718Z,95313.53
2023-01-15T13:13:23.043Z,95328.13
2023-01-15T13:16:35.936Z,95357.94
2023-01-15T13:19:23.136Z,95363.13
2023-01-15T13:21:54.612Z,95377.81
2023-01-15T13:24:42.619Z,95401.09
2023-01-15T13:27:12.257Z,95413.34
2023-01-15T13:30:08.594Z,95410.81
2023-01-15T13:32:43.927Z,95421.78
2023-01-15T13:35:23.079Z,95441.56
2023-01-15T13:37:53.802Z,95438.44
2023-01-15T13:40:35.081Z,95450.09
2023-01-15T13:43:04.863Z,95457.03
2023-01-15T13:45:31.513Z,95459.25
2023-01-15T13:48:15.391Z,95465.41
2023-01-15T13:50:51.983Z,95460.66
2023-01-15T13:53:27.351Z,95466.75
2023-01-15T13:55:56.480Z,95474.97
2023-01-15T13:58:25.418Z,95475.25
2023-01-15T14:01:08.928Z,95477.09
2023-01-15T14:03:38.347Z,95483.78
2023-01-15T14:06:08.500Z,95490.09
2023-01-15T14:08:46.272Z,95503.94
2023-01-15T14:11:45.731Z,95511.19
2023-01-15T14:14:30.379Z,95518.72
2023-01-15T14:17:20.808Z,95516.84
2023-01-15T14:20:24.188Z,95530.06
2023-01-15T14:23:28.205Z,95542.47
2023-01-15T14:26:06.913Z,95546.81
2023-01-15T14:28:50.073Z,95542.28
2023-01-15T14:31:22.646Z,95545.84
2023-01-15T14:34:05.591Z,95545.41
2023-01-15T14:36:40.362Z,95558.75
2023-01-15T14:39:24.370Z,95553.97
2023-01-15T14:42:16.754Z,95551.00
2023-01-15T14:44:44.926Z,95564.00
2023-01-15T14:47:26.388Z,95563.44
2023-01-15T14:50:38.476Z,95563.91
2023-01-15T14:53:14.010Z,95568.16
2023-01-15T14:55:56.375Z,95572.47
2023-01-15T14:58:48.317Z,95581.56
2023-01-15T15:01:21.106Z,95582.63
2023-01-15T15:03:57.967Z,95583.47
2023-01-15T15:06:27.271Z,95592.53
2023-01-15T15:09:00.507Z,95603.44
2023-01-15T15:11:55.062Z,95596.81
2023-01-15T15:14:24.028Z,95608.75
2023-01-15T15:16:54.062Z,95614.59
2023-01-15T15:19:38.913Z,95618.28
2023-01-15T15:22:10.463Z,95621.72
2023-01-15T15:24:46.935Z,95628.41
2023-01-15T15:27:19.666Z,95618.00
2023-01-15T15:29:46.468Z,95623.88
2023-01-15T15:32:24.903Z,95624.09
2023-01-15T15:34:53.658Z,95624.31
2023-01-15T15:37:24.964Z,95626.66
2023-01-15T15:40:05.033Z,95632.44
2023-01-15T15:42:58.332Z,95628.63
2023-01-15T15:45:46.911Z,95631.50
2023-01-15T15:48:39.216Z,95641.69
2023-01-15T15:51:26.531Z,95640.59
2023-01-15T15:54:11.606Z,95632.16
2023-01-15T15:56:42.851Z,95633.47
2023-01-15T15:59:17.725Z,95628.66
2023-01-15T16:01:45.264Z,95620.44
2023-01-15T16:04:20.293Z,95625.75
2023-01-15T16:06:48.678Z,95633.44
2023-01-15T16:09:21.046Z,95636.13
2023-01-15T16:11:48.807Z,95637.47
2023-01-15T16:14:17.308Z,95643.84
2023-01-15T16:16:46.809Z,95647.84
2023-01-15T16:19:23.301Z,95641.16
2023-01-15T16:21:51.563Z,95655.53
2023-01-15T16:24:27.309Z,95660.31
2023-01-15T16:26:59.633Z,95659.25
2023-01-15T16:29:29.781Z,95655.78
2023-01-15T16:31:59.634Z,95664.84
2023-01-15T16:34:31.494Z,95668.81
2023-01-15T16:36:59.586Z,95667.22
2023-01-15T16:39:43.828Z,95664.56
2023-01-15T16:42:45.564Z,95668.84
2023-01-15T16:45:24.671Z,95673.56
2023-01-15T16:48:11.891Z,95679.44
2023-01-15T16:50:42.681Z,95686.09
2023-01-15T16:53:30.361Z,95683.19
2023-01-15T16:55:59.616Z,95686.63
2023-01-15T16:58:38.741Z,95683.19
2023-01-15T17:01:32.323Z,95682.91
2023-01-15T17:03:59.237Z,95676.81
2023-01-15T17:06:27.226Z,95691.16
2023-01-15T17:08:55.556Z,95691.94
2023-01-15T17:11:25.978Z,95686.88
2023-01-15T17:14:08.735Z,95695.94
2023-01-15T17:16:35.676Z,95701.25
2023-01-15T17:19:07.132Z,95721.16
2023-01-15T17:21:34.349Z,95703.91
2023-01-15T17:24:01.349Z,95697.78
2023-01-15T17:26:28.792Z,95698.00
2023-01-15T17:28:55.987Z,95690.56
2023-01-15T17:31:28.352Z,95683.66
2023-01-15T17:33:56.372Z,95675.66
2023-01-15T17:36:23.755Z,95678.56
2023-01-15T17:38:50.755Z,95686.22
2023-01-15T17:41:19.105Z,95694.19
2023-01-15T17:43:46.061Z,95678.78
2023-01-15T17:46:12.724Z,95693.16
2023-01-15T17:48:40.472Z,95713.97
2023-01-15T17:51:12.007Z,95707.25
2023-01-15T17:53:38.740Z,95697.50
2023-01-15T17:56:24.535Z,95696.44
2023-01-15T17:59:09.359Z,95699.66
2023-01-15T18:02:05.970Z,95700.41
2023-01-15T18:04:57.046Z,95696.63
2023-01-15T18:07:26.638Z,95702.50
2023-01-15T18:09:56.389Z,95711.31
2023-01-15T18:12:23.609Z,95706.78
2023-01-15T18:14:50.304Z,95707.06
2023-01-15T18:17:16.910Z,95715.31
2023-01-15T18:19:43.545Z,95719.78
2023-01-15T18:22:10.618Z,95715.59
2023-01-15T18:24:37.367Z,95706.03
2023-01-15T18:27:03.980Z,95702.84
2023-01-15T18:29:30.622Z,95712.91
2023-01-15T18:31:57.227Z,95726.72
2023-01-15T18:34:23.865Z,95717.13
2023-01-15T18:36:50.495Z,95719.50
2023-01-15T18:39:17.077Z,95706.22
2023-01-15T18:41:43.659Z,95713.34
2023-01-15T18:44:34.239Z,95722.88
2023-01-15T18:47:03.550Z,95727.19
2023-01-15T18:49:31.283Z,95724.53
2023-01-15T18:52:17.050Z,95722.16
2023-01-15T18:54:43.700Z,95732.03
2023-01-15T18:57:10.359Z,95724.84
2023-01-15T18:59:37.060Z,95728.28
2023-01-15T19:02:04.838Z,95730.63
2023-01-15T19:04:31.890Z,95737.34
2023-01-15T19:06:59.341Z,95737.81
2023-01-15T19:09:26.169Z,95736.53
2023-01-15T19:11:53.380Z,95729.63
2023-01-15T19:14:39.499Z,95732.03
2023-01-15T19:17:25.715Z,95732.03
2023-01-15T19:19:52.321Z,95722.47
2023-01-15T19:22:37.674Z,95721.94
2023-01-15T19:25:04.608Z,95722.47
2023-01-15T19:27:31.186Z,95727.28
2023-01-15T19:29:58.836Z,95721.97
2023-01-15T19:32:25.507Z,95724.09
2023-01-15T19:34:53.105Z,95713.47
2023-01-15T19:37:19.953Z,95711.31
2023-01-15T19:39:46.554Z,95713.16
2023-01-15T19:42:32.257Z,95707.34
2023-01-15T19:45:17.449Z,95708.16
2023-01-15T19:48:03.039Z,95713.75
2023-01-15T19:50:41.781Z,95700.19
2023-01-15T19:53:09.403Z,95706.56
2023-01-15T19:55:38.673Z,95704.47
2023-01-15T19:58:07.666Z,95702.84
2023-01-15T20:00:37.287Z,95701.78
2023-01-15T20:03:04.935Z,95702.03
2023-01-15T20:05:32.822Z,95699.09
2023-01-15T20:07:59.625Z,95690.09
2023-01-15T20:10:27.732Z,95691.66
2023-01-15T20:13:12.982Z,95689.00
2023-01-15T20:15:45.421Z,95682.59
2023-01-15T20:18:13.878Z,95690.06
2023-01-15T20:20:41.246Z,95682.34
2023-01-15T20:23:07.876Z,95673.53
2023-01-15T20:25:35.394Z,95669.78
2023-01-15T20:28:02.043Z,95652.50
2023-01-15T20:30:29.640Z,95661.38
2023-01-15T20:32:59.292Z,95652.28
2023-01-15T20:35:31.264Z,95656.00
2023-01-15T20:37:58.606Z,95650.72
2023-01-15T20:40:26.236Z,95645.94
2023-01-15T20:43:12.908Z,95640.06
2023-01-15T20:45:40.800Z,95645.34
2023-01-15T20:48:11.784Z,95634.78
2023-01-15T20:51:03.334Z,95634.25
2023-01-15T20:53:33.711Z,95624.94
2023-01-15T20:56:10.750Z,95619.88
2023-01-15T20:58:37.396Z,95621.72
2023-01-15T21:01:06.510Z,95619.34
2023-01-15T21:03:33.339Z,95612.97
2023-01-15T21:05:59.987Z,95608.16
2023-01-15T21:08:27.113Z,95612.69
2023-01-15T21:10:54.926Z,95605.50
2023-01-15T21:13:22.942Z,95607.59
2023-01-15T21:16:01.773Z,95601.22
2023-01-15T21:18:30.113Z,95587.38
2023-01-15T21:20:56.923Z,95598.50
2023-01-15T21:23:23.953Z,95586.22
2023-01-15T21:25:50.770Z,95590.47
2023-01-15T21:28:17.664Z,95583.59
2023-01-15T21:30:44.866Z,95580.38
2023-01-15T21:33:11.928Z,95579.13
2023-01-15T21:35:42.166Z,95577.25
2023-01-15T21:38:09.236Z,95565.53
2023-01-15T21:40:37.495Z,95564.19
2023-01-15T21:43:23.297Z,95560.72
2023-01-15T21:45:51.157Z,95556.75
2023-01-15T21:48:18.781Z,95560.25
2023-01-15T21:50:45.561Z,95553.13
2023-01-15T21:53:12.207Z,95556.59
2023-01-15T21:55:38.945Z,95559.00
2023-01-15T21:58:05.573Z,95557.63
2023-01-15T22:00:32.173Z,95551.50
2023-01-15T22:02:58.889Z,95538.53
2023-01-15T22:05:25.530Z,95534.59
2023-01-15T22:07:52.188Z,95530.53
2023-01-15T22:10:18.888Z,95524.19
2023-01-15T22:12:45.485Z,95524.19
2023-01-15T22:15:12.301Z,95528.22
2023-01-15T22:17:38.938Z,95532.69
2023-01-15T22:20:07.194Z,95524.19
2023-01-15T22:22:36.524Z,95521.06
2023-01-15T22:25:05.683Z,95516.53
2023-01-15T22:27:34.561Z,95513.63
2023-01-15T22:30:01.388Z,95510.69
2023-01-15T22:32:28.064Z,95508.56
2023-01-15T22:34:54.650Z,95505.13
2023-01-15T22:37:21.237Z,95500.81
2023-01-15T22:39:48.836Z,95493.41
2023-01-15T22:42:24.425Z,95501.41
2023-01-15T22:44:51.854Z,95484.94
2023-01-15T22:47:19.322Z,95488.38
2023-01-15T22:49:46.116Z,95483.66
2023-01-15T22:52:13.039Z,95484.44
2023-01-15T22:54:39.739Z,95471.13
2023-01-15T22:57:06.425Z,95466.09
2023-01-15T22:59:33.087Z,95454.63
2023-01-15T23:01:59.810Z,95451.16
2023-01-15T23:04:26.637Z,95454.59
2023-01-15T23:06:54.261Z,95445.56
2023-01-15T23:09:22.897Z,95449.31
2023-01-15T23:11:51.517Z,95446.06
2023-01-15T23:14:19.607Z,95436.53
2023-01-15T23:16:46.314Z,95442.31
2023-01-15T23:19:14.222Z,95432.44
2023-01-15T23:21:41.175Z,95424.84
2023-01-15T23:24:08.131Z,95432.75
2023-01-15T23:26:35.560Z,95431.16
2023-01-15T23:29:02.370Z,95430.91
2023-01-15T23:31:29.650Z,95431.97
2023-01-15T23:33:56.286Z,95435.13
2023-01-15T23:36:23.494Z,95421.16
2023-01-15T23:38:50.206Z,95425.03
2023-01-15T23:41:19.720Z,95413.09
2023-01-15T23:44:04.629Z,95413.94
2023-01-15T23:46:37.397Z,95414.75
2023-01-15T23:49:05.336Z,95399.78
2023-01-15T23:51:32.582Z,95396.50
2023-01-15T23:54:00.413Z,95388.28
2023-01-15T23:56:28.796Z,95391.84
2023-01-15T23:58:56.276Z,95382.13
